Flight Track Log - Related Links

Times and Time Zones

All times are in EDT time to prevent confusion due to time zone crossing. See the CTL309 flight status page for this flight to view local times or setup timezone preferences in your user account.

Time Position Orientation Groundspeed Altitude Reporting Facility
EDT Latitude Longitude Course Direction KTS MPH feet Rate Location/Type
Tue 03:40:32 AM 40.0692 -83.1603 239° Southwest 160 184 2,100  Level Indianapolis Center
Tue 03:41:33 AM 40.0469 -83.2094 239° Southwest 156 180 2,500 319 Climbing Indianapolis Center
Tue 03:42:06 AM 40.0378 -83.2319 242° Southwest 155 178 2,600 197 Climbing Indianapolis Center
Tue 03:42:34 AM 40.0244 -83.2586 237° Southwest 161 185 2,700 300 Climbing Indianapolis Center
Tue 03:43:06 AM 40.0139 -83.2811 239° Southwest 158 182 2,900 300 Climbing Indianapolis Center
Tue 03:43:34 AM 40.0003 -83.3072 236° Southwest 157 181 3,000 200 Climbing Indianapolis Center
Tue 03:44:06 AM 39.9892 -83.3297 237° Southwest 159 183 3,100 179 Climbing Indianapolis Center
Tue 03:44:41 AM 39.9714 -83.3611 234° Southwest 161 185 3,200 200 Climbing Indianapolis Center
Tue 03:45:06 AM 39.9644 -83.3783 242° Southwest 160 184 3,300 295 Climbing Indianapolis Center
Tue 03:45:42 AM 39.9489 -83.4100 237° Southwest 161 185 3,500 295 Climbing Indianapolis Center
Tue 03:46:07 AM 39.9406 -83.4275 238° Southwest 160 184 3,600 333 Climbing Indianapolis Center
Tue 03:46:36 AM 39.9267 -83.4564 238° Southwest 156 180 3,800 400 Climbing Indianapolis Center
Tue 03:47:07 AM 39.9158 -83.4744 232° Southwest 158 182 4,000 295 Climbing Indianapolis Center
Tue 03:47:37 AM 39.9025 -83.5022 238° Southwest 155 178 4,100  Climbing Indianapolis Center
Tue 03:48:07 AM 39.8919 -83.5211 234° Southwest 156 180 4,000  Descending Indianapolis Center
Tue 03:48:37 AM 39.8781 -83.5508 239° Southwest 162 186 4,100 100 Climbing Indianapolis Center
Tue 03:49:07 AM 39.8675 -83.5689 233° Southwest 158 182 4,100  Level Indianapolis Center
Tue 03:49:38 AM 39.8536 -83.5969 237° Southwest 157 181 4,100  Level Indianapolis Center
Tue 03:50:07 AM 39.8436 -83.6169 237° Southwest 158 182 4,100  Level Indianapolis Center
Tue 03:50:38 AM 39.8292 -83.6453 236° Southwest 155 178 4,100  Level Indianapolis Center
Tue 03:51:07 AM 39.8211 -83.6644 241° Southwest 155 178 4,100  Level Indianapolis Center
Tue 03:51:39 AM 39.8067 -83.6942 238° Southwest 154 177 4,100  Level Indianapolis Center
Tue 03:52:08 AM 39.7986 -83.7119 239° Southwest 154 177 4,100  Level Indianapolis Center
Tue 03:52:40 AM 39.7844 -83.7403 237° Southwest 156 180 4,100  Level Indianapolis Center
Tue 03:53:08 AM 39.7761 -83.7611 243° Southwest 155 178 4,100  Level Indianapolis Center
Tue 03:53:40 AM 39.7619 -83.7889 236° Southwest 158 182 4,100  Level Indianapolis Center
Tue 03:54:08 AM 39.7542 -83.8100 244° Southwest 156 180 4,100  Level Indianapolis Center
Tue 03:54:41 AM 39.7414 -83.8381 239° Southwest 154 177 4,100  Level Indianapolis Center
Tue 03:55:08 AM 39.7314 -83.8586 238° Southwest 156 180 4,100  Level Indianapolis Center
Tue 03:55:41 AM 39.7186 -83.8894 242° Southwest 159 183 4,100  Level Indianapolis Center
Tue 03:56:08 AM 39.7078 -83.9078 232° Southwest 157 181 4,100  Level Indianapolis Center
Tue 03:56:42 AM 39.6922 -83.9347 233° Southwest 157 181 4,100  Level Indianapolis Center
Tue 03:57:09 AM 39.6825 -83.9539 237° Southwest 156 180 4,100  Level Indianapolis Center
Tue 03:57:43 AM 39.6678 -83.9806 234° Southwest 155 178 4,100  Level Indianapolis Center
Tue 03:58:09 AM 39.6558 -83.9989 230° Southwest 156 180 4,100  Level Indianapolis Center
Tue 03:58:43 AM 39.6411 -84.0258 235° Southwest 154 177 4,100  Level Indianapolis Center
Tue 03:59:09 AM 39.6317 -84.0464 239° Southwest 156 180 4,100  Level Indianapolis Center
Tue 04:00:09 AM 39.6092 -84.0953 239° Southwest 156 180 4,100 -149 Level Indianapolis Center
Tue 04:01:10 AM 39.5842 -84.1436 236° Southwest 157 181 3,800 -397 Descending Indianapolis Center
Tue 04:02:10 AM 39.5600 -84.1953 239° Southwest 162 186 3,300 -250 Descending Indianapolis Center
Tue 04:03:10 AM 39.5356 -84.2431 236° Southwest 163 188 3,300  Level Indianapolis Center
Tue 04:05:00 AM 39.4697 -84.2975 213° Southwest  Level FlightAware Approximate
Tue 04:12:00 AM 39.3500 -84.5167 229° Southwest  Level FlightAware Approximate
Tue 04:13:00 AM 39.3638 -84.5219 229° Southwest  Level Estimated
Tue 04:14:00 AM 39.3638 -84.5219 229° Southwest  Level Estimated
Tue 04:15:00 AM 39.3638 -84.5219 229° Southwest  Level Estimated
Tue 04:16:00 AM 39.3638 -84.5219 229° Southwest  Level Estimated
Tue 04:17:00 AM 39.3638 -84.5219 229° Southwest  Level Estimated
Tue 04:18:00 AM 39.3638 -84.5219 229° Southwest  Level Estimated
Tue 04:19:00 AM 39.3638 -84.5219 229° Southwest  Level Estimated
Tue 04:20:00 AM 39.3638 -84.5219 229° Southwest  Level Estimated

Login

Don't have an account? Register now (free) for customized features, flight alerts, and more!